Terminal Aerodrome Forecast
Issued by NWS

Home | Current Version | Previous Version | Graphics & Text | Print | Product List | Glossary On
Versions: 1 2 3 4 5 6 7 8 9 10 11 12 13 14
000
FTUS42 KMHX 241730
TAFOAJ
TAF
KOAJ 241730Z 2418/2518 33010G15KT P6SM SKC
     FM250000 VRB02KT P6SM SCT250
     FM251100 20005KT P6SM SCT100 BKN200
     FM251500 20008KT P6SM OVC050
      AMD LTD TO CLD VIS AND WIND=

USA.gov is the U.S. government's official web portal to all federal, state and local government web resources and services.